sensor_id;sensor_type;location;lat;lon;timestamp;temperature;humidity
4687;DHT22;2357;47.316;-1.348;2023-02-07T00:02:25;4.70;99.90
4687;DHT22;2357;47.316;-1.348;2023-02-07T00:04:51;4.70;99.90
4687;DHT22;2357;47.316;-1.348;2023-02-07T00:07:17;4.70;99.90
4687;DHT22;2357;47.316;-1.348;2023-02-07T00:09:42;4.70;99.90
4687;DHT22;2357;47.316;-1.348;2023-02-07T00:12:08;4.70;99.90
4687;DHT22;2357;47.316;-1.348;2023-02-07T00:14:33;4.70;99.90
4687;DHT22;2357;47.316;-1.348;2023-02-07T00:16:59;4.70;99.90
4687;DHT22;2357;47.316;-1.348;2023-02-07T00:19:25;4.60;99.90
4687;DHT22;2357;47.316;-1.348;2023-02-07T00:21:50;4.60;99.90
4687;DHT22;2357;47.316;-1.348;2023-02-07T00:24:16;4.50;99.90
4687;DHT22;2357;47.316;-1.348;2023-02-07T00:26:41;4.50;99.90
4687;DHT22;2357;47.316;-1.348;2023-02-07T00:29:12;4.50;99.90
4687;DHT22;2357;47.316;-1.348;2023-02-07T00:31:38;4.60;99.90
4687;DHT22;2357;47.316;-1.348;2023-02-07T00:34:06;4.60;99.90
4687;DHT22;2357;47.316;-1.348;2023-02-07T00:36:34;4.60;99.90
4687;DHT22;2357;47.316;-1.348;2023-02-07T00:39:02;4.50;99.90
4687;DHT22;2357;47.316;-1.348;2023-02-07T00:41:29;4.50;99.90
4687;DHT22;2357;47.316;-1.348;2023-02-07T00:43:55;4.40;99.90
4687;DHT22;2357;47.316;-1.348;2023-02-07T00:46:21;4.40;99.90
4687;DHT22;2357;47.316;-1.348;2023-02-07T00:48:47;4.40;99.90
4687;DHT22;2357;47.316;-1.348;2023-02-07T00:51:13;4.30;99.90
4687;DHT22;2357;47.316;-1.348;2023-02-07T00:53:39;4.20;99.90
4687;DHT22;2357;47.316;-1.348;2023-02-07T00:56:06;4.20;99.90
4687;DHT22;2357;47.316;-1.348;2023-02-07T00:58:31;4.10;99.90
4687;DHT22;2357;47.316;-1.348;2023-02-07T01:00:57;4.10;99.90
4687;DHT22;2357;47.316;-1.348;2023-02-07T01:03:23;4.10;99.90
4687;DHT22;2357;47.316;-1.348;2023-02-07T01:05:49;4.00;99.90
4687;DHT22;2357;47.316;-1.348;2023-02-07T01:08:14;4.10;99.90
4687;DHT22;2357;47.316;-1.348;2023-02-07T01:10:42;4.00;99.90
4687;DHT22;2357;47.316;-1.348;2023-02-07T01:13:08;4.00;99.90
4687;DHT22;2357;47.316;-1.348;2023-02-07T01:15:38;4.00;99.90
4687;DHT22;2357;47.316;-1.348;2023-02-07T01:18:05;4.00;99.90
4687;DHT22;2357;47.316;-1.348;2023-02-07T01:20:31;4.00;99.90
4687;DHT22;2357;47.316;-1.348;2023-02-07T01:22:57;4.00;99.90
4687;DHT22;2357;47.316;-1.348;2023-02-07T01:25:23;4.00;99.90
4687;DHT22;2357;47.316;-1.348;2023-02-07T01:27:48;4.00;99.90
4687;DHT22;2357;47.316;-1.348;2023-02-07T01:30:14;3.90;99.90
4687;DHT22;2357;47.316;-1.348;2023-02-07T01:32:39;4.00;99.90
4687;DHT22;2357;47.316;-1.348;2023-02-07T01:35:05;3.90;99.90
4687;DHT22;2357;47.316;-1.348;2023-02-07T01:37:31;4.00;99.90
4687;DHT22;2357;47.316;-1.348;2023-02-07T01:39:57;3.80;99.90
4687;DHT22;2357;47.316;-1.348;2023-02-07T01:42:24;3.90;99.90
4687;DHT22;2357;47.316;-1.348;2023-02-07T01:47:18;3.90;99.90
4687;DHT22;2357;47.316;-1.348;2023-02-07T01:49:45;3.70;99.90
4687;DHT22;2357;47.316;-1.348;2023-02-07T01:52:18;3.80;99.90
4687;DHT22;2357;47.316;-1.348;2023-02-07T01:54:51;3.80;99.90
4687;DHT22;2357;47.316;-1.348;2023-02-07T01:57:20;3.80;99.90
4687;DHT22;2357;47.316;-1.348;2023-02-07T01:59:50;3.80;99.90
4687;DHT22;2357;47.316;-1.348;2023-02-07T02:02:19;3.80;99.90
4687;DHT22;2357;47.316;-1.348;2023-02-07T02:04:45;3.70;99.90
4687;DHT22;2357;47.316;-1.348;2023-02-07T02:07:12;3.70;99.90
4687;DHT22;2357;47.316;-1.348;2023-02-07T02:09:38;3.70;99.90
4687;DHT22;2357;47.316;-1.348;2023-02-07T02:22:53;3.60;99.90
4687;DHT22;2357;47.316;-1.348;2023-02-07T02:25:29;3.60;99.90
4687;DHT22;2357;47.316;-1.348;2023-02-07T02:41:48;3.60;99.90
4687;DHT22;2357;47.316;-1.348;2023-02-07T02:44:46;3.60;99.90
4687;DHT22;2357;47.316;-1.348;2023-02-07T02:47:10;3.60;99.90
4687;DHT22;2357;47.316;-1.348;2023-02-07T02:49:36;3.50;99.90
4687;DHT22;2357;47.316;-1.348;2023-02-07T02:52:04;3.50;99.90
4687;DHT22;2357;47.316;-1.348;2023-02-07T02:54:36;3.50;99.90
4687;DHT22;2357;47.316;-1.348;2023-02-07T03:02:48;3.50;99.90
4687;DHT22;2357;47.316;-1.348;2023-02-07T03:08:26;3.30;99.90
4687;DHT22;2357;47.316;-1.348;2023-02-07T03:11:12;3.20;99.90
4687;DHT22;2357;47.316;-1.348;2023-02-07T03:19:43;3.20;99.90
4687;DHT22;2357;47.316;-1.348;2023-02-07T03:22:13;3.20;99.90
4687;DHT22;2357;47.316;-1.348;2023-02-07T03:24:44;3.10;99.90
4687;DHT22;2357;47.316;-1.348;2023-02-07T03:27:13;3.10;99.90
4687;DHT22;2357;47.316;-1.348;2023-02-07T03:29:42;3.10;99.90
4687;DHT22;2357;47.316;-1.348;2023-02-07T03:32:11;3.00;99.90
4687;DHT22;2357;47.316;-1.348;2023-02-07T03:34:42;3.00;99.90
4687;DHT22;2357;47.316;-1.348;2023-02-07T03:37:21;3.00;99.90
4687;DHT22;2357;47.316;-1.348;2023-02-07T03:39:49;3.00;99.90
4687;DHT22;2357;47.316;-1.348;2023-02-07T03:44:48;2.90;99.90
4687;DHT22;2357;47.316;-1.348;2023-02-07T03:47:18;2.90;99.90
4687;DHT22;2357;47.316;-1.348;2023-02-07T03:49:44;2.90;99.90
4687;DHT22;2357;47.316;-1.348;2023-02-07T03:52:09;2.90;99.90
4687;DHT22;2357;47.316;-1.348;2023-02-07T03:54:35;2.90;99.90
4687;DHT22;2357;47.316;-1.348;2023-02-07T03:57:01;2.90;99.90
4687;DHT22;2357;47.316;-1.348;2023-02-07T03:59:27;2.90;99.90
4687;DHT22;2357;47.316;-1.348;2023-02-07T04:01:53;2.90;99.90
4687;DHT22;2357;47.316;-1.348;2023-02-07T04:04:19;2.90;99.90
4687;DHT22;2357;47.316;-1.348;2023-02-07T04:06:45;2.90;99.90
4687;DHT22;2357;47.316;-1.348;2023-02-07T04:09:10;2.80;99.90
4687;DHT22;2357;47.316;-1.348;2023-02-07T04:11:36;2.80;99.90
4687;DHT22;2357;47.316;-1.348;2023-02-07T04:14:02;2.80;99.90
4687;DHT22;2357;47.316;-1.348;2023-02-07T04:16:27;2.90;99.90
4687;DHT22;2357;47.316;-1.348;2023-02-07T04:18:53;2.80;99.90
4687;DHT22;2357;47.316;-1.348;2023-02-07T04:21:18;2.80;99.90
4687;DHT22;2357;47.316;-1.348;2023-02-07T04:23:44;2.70;99.90
4687;DHT22;2357;47.316;-1.348;2023-02-07T04:26:10;2.70;99.90
4687;DHT22;2357;47.316;-1.348;2023-02-07T04:28:35;2.70;99.90
4687;DHT22;2357;47.316;-1.348;2023-02-07T04:31:01;2.60;99.90
4687;DHT22;2357;47.316;-1.348;2023-02-07T04:33:27;2.70;99.90
4687;DHT22;2357;47.316;-1.348;2023-02-07T04:35:57;2.70;99.90
4687;DHT22;2357;47.316;-1.348;2023-02-07T04:38:23;2.70;99.90
4687;DHT22;2357;47.316;-1.348;2023-02-07T04:40:49;2.70;99.90
4687;DHT22;2357;47.316;-1.348;2023-02-07T04:43:15;2.70;99.90
4687;DHT22;2357;47.316;-1.348;2023-02-07T04:45:40;2.70;99.90
4687;DHT22;2357;47.316;-1.348;2023-02-07T04:48:06;2.60;99.90
4687;DHT22;2357;47.316;-1.348;2023-02-07T04:50:32;2.60;99.90
4687;DHT22;2357;47.316;-1.348;2023-02-07T04:52:57;2.60;99.90
4687;DHT22;2357;47.316;-1.348;2023-02-07T04:55:23;2.60;99.90
4687;DHT22;2357;47.316;-1.348;2023-02-07T04:57:49;2.60;99.90
4687;DHT22;2357;47.316;-1.348;2023-02-07T05:00:15;2.60;99.90
4687;DHT22;2357;47.316;-1.348;2023-02-07T05:02:42;2.70;99.90
4687;DHT22;2357;47.316;-1.348;2023-02-07T05:05:08;2.70;99.90
4687;DHT22;2357;47.316;-1.348;2023-02-07T05:07:34;2.60;99.90
4687;DHT22;2357;47.316;-1.348;2023-02-07T05:10:00;2.70;99.90
4687;DHT22;2357;47.316;-1.348;2023-02-07T05:12:25;2.80;99.90
4687;DHT22;2357;47.316;-1.348;2023-02-07T05:14:51;2.80;99.90
4687;DHT22;2357;47.316;-1.348;2023-02-07T05:17:17;2.80;99.90
4687;DHT22;2357;47.316;-1.348;2023-02-07T05:19:42;2.80;99.90
4687;DHT22;2357;47.316;-1.348;2023-02-07T05:22:08;2.80;99.90
4687;DHT22;2357;47.316;-1.348;2023-02-07T05:24:33;2.70;99.90
4687;DHT22;2357;47.316;-1.348;2023-02-07T05:26:59;2.70;99.90
4687;DHT22;2357;47.316;-1.348;2023-02-07T05:29:25;2.70;99.90
4687;DHT22;2357;47.316;-1.348;2023-02-07T05:31:50;2.80;99.90
4687;DHT22;2357;47.316;-1.348;2023-02-07T05:34:34;2.70;99.90
4687;DHT22;2357;47.316;-1.348;2023-02-07T05:37:00;2.70;99.90
4687;DHT22;2357;47.316;-1.348;2023-02-07T05:39:26;2.80;99.90
4687;DHT22;2357;47.316;-1.348;2023-02-07T05:41:51;2.70;99.90
4687;DHT22;2357;47.316;-1.348;2023-02-07T05:44:17;2.70;99.90
4687;DHT22;2357;47.316;-1.348;2023-02-07T05:46:42;2.70;99.90
4687;DHT22;2357;47.316;-1.348;2023-02-07T05:49:08;2.50;99.90
4687;DHT22;2357;47.316;-1.348;2023-02-07T05:51:34;2.60;99.90
4687;DHT22;2357;47.316;-1.348;2023-02-07T05:53:59;2.60;99.90
4687;DHT22;2357;47.316;-1.348;2023-02-07T05:56:25;2.50;99.90
4687;DHT22;2357;47.316;-1.348;2023-02-07T05:58:51;2.60;99.90
4687;DHT22;2357;47.316;-1.348;2023-02-07T06:01:17;2.60;99.90
4687;DHT22;2357;47.316;-1.348;2023-02-07T06:03:43;2.60;99.90
4687;DHT22;2357;47.316;-1.348;2023-02-07T06:06:10;2.60;99.90
4687;DHT22;2357;47.316;-1.348;2023-02-07T06:08:36;2.50;99.90
4687;DHT22;2357;47.316;-1.348;2023-02-07T06:11:01;2.50;99.90
4687;DHT22;2357;47.316;-1.348;2023-02-07T06:13:27;2.60;99.90
4687;DHT22;2357;47.316;-1.348;2023-02-07T06:15:52;2.60;99.90
4687;DHT22;2357;47.316;-1.348;2023-02-07T06:18:18;2.50;99.90
4687;DHT22;2357;47.316;-1.348;2023-02-07T06:20:44;2.50;99.90
4687;DHT22;2357;47.316;-1.348;2023-02-07T06:23:09;2.50;99.90
4687;DHT22;2357;47.316;-1.348;2023-02-07T06:25:35;2.50;99.90
4687;DHT22;2357;47.316;-1.348;2023-02-07T06:28:00;2.40;99.90
4687;DHT22;2357;47.316;-1.348;2023-02-07T06:30:26;2.30;99.90
4687;DHT22;2357;47.316;-1.348;2023-02-07T06:32:52;2.30;99.90
4687;DHT22;2357;47.316;-1.348;2023-02-07T06:35:17;2.30;99.90
4687;DHT22;2357;47.316;-1.348;2023-02-07T06:37:43;2.30;99.90
4687;DHT22;2357;47.316;-1.348;2023-02-07T06:40:09;2.20;99.90
4687;DHT22;2357;47.316;-1.348;2023-02-07T06:42:35;2.20;99.90
4687;DHT22;2357;47.316;-1.348;2023-02-07T06:45:00;2.20;99.90
4687;DHT22;2357;47.316;-1.348;2023-02-07T06:47:26;2.30;99.90
4687;DHT22;2357;47.316;-1.348;2023-02-07T06:49:52;2.30;99.90
4687;DHT22;2357;47.316;-1.348;2023-02-07T06:52:17;2.20;99.90
4687;DHT22;2357;47.316;-1.348;2023-02-07T06:54:43;2.20;99.90
4687;DHT22;2357;47.316;-1.348;2023-02-07T06:57:08;2.20;99.90
4687;DHT22;2357;47.316;-1.348;2023-02-07T06:59:34;2.30;99.90
4687;DHT22;2357;47.316;-1.348;2023-02-07T07:02:00;2.30;99.90
4687;DHT22;2357;47.316;-1.348;2023-02-07T07:04:26;2.30;99.90
4687;DHT22;2357;47.316;-1.348;2023-02-07T07:06:51;2.20;99.90
4687;DHT22;2357;47.316;-1.348;2023-02-07T07:09:17;2.20;99.90
4687;DHT22;2357;47.316;-1.348;2023-02-07T07:11:43;2.20;99.90
4687;DHT22;2357;47.316;-1.348;2023-02-07T07:14:12;2.30;99.90
4687;DHT22;2357;47.316;-1.348;2023-02-07T07:16:38;2.30;99.90
4687;DHT22;2357;47.316;-1.348;2023-02-07T07:19:05;2.20;99.90
4687;DHT22;2357;47.316;-1.348;2023-02-07T07:21:31;2.20;99.90
4687;DHT22;2357;47.316;-1.348;2023-02-07T07:23:57;2.30;99.90
4687;DHT22;2357;47.316;-1.348;2023-02-07T07:26:22;2.20;99.90
4687;DHT22;2357;47.316;-1.348;2023-02-07T07:28:48;2.20;99.90
4687;DHT22;2357;47.316;-1.348;2023-02-07T07:31:14;2.10;99.90
4687;DHT22;2357;47.316;-1.348;2023-02-07T07:33:40;2.20;99.90
4687;DHT22;2357;47.316;-1.348;2023-02-07T07:36:06;2.30;99.90
4687;DHT22;2357;47.316;-1.348;2023-02-07T07:38:32;2.20;99.90
4687;DHT22;2357;47.316;-1.348;2023-02-07T07:40:58;2.20;99.90
4687;DHT22;2357;47.316;-1.348;2023-02-07T07:43:25;2.20;99.90
4687;DHT22;2357;47.316;-1.348;2023-02-07T07:45:55;2.20;99.90
4687;DHT22;2357;47.316;-1.348;2023-02-07T07:48:21;2.30;99.90
4687;DHT22;2357;47.316;-1.348;2023-02-07T07:50:48;2.30;99.90
4687;DHT22;2357;47.316;-1.348;2023-02-07T07:53:14;2.30;99.90
4687;DHT22;2357;47.316;-1.348;2023-02-07T07:55:40;2.30;99.90
4687;DHT22;2357;47.316;-1.348;2023-02-07T07:58:06;2.30;99.90
4687;DHT22;2357;47.316;-1.348;2023-02-07T08:00:32;2.40;99.90
4687;DHT22;2357;47.316;-1.348;2023-02-07T08:02:58;2.40;99.90
4687;DHT22;2357;47.316;-1.348;2023-02-07T08:05:25;2.40;99.90
4687;DHT22;2357;47.316;-1.348;2023-02-07T08:07:51;2.50;99.90
4687;DHT22;2357;47.316;-1.348;2023-02-07T08:10:17;2.50;99.90
4687;DHT22;2357;47.316;-1.348;2023-02-07T08:12:42;2.50;99.90
4687;DHT22;2357;47.316;-1.348;2023-02-07T08:15:08;2.60;99.90
4687;DHT22;2357;47.316;-1.348;2023-02-07T08:17:35;2.60;99.90
4687;DHT22;2357;47.316;-1.348;2023-02-07T08:20:02;2.70;99.90
4687;DHT22;2357;47.316;-1.348;2023-02-07T08:22:27;2.70;99.90
4687;DHT22;2357;47.316;-1.348;2023-02-07T08:24:53;2.70;99.90
4687;DHT22;2357;47.316;-1.348;2023-02-07T08:27:19;2.80;99.90
4687;DHT22;2357;47.316;-1.348;2023-02-07T08:29:44;2.80;99.90
4687;DHT22;2357;47.316;-1.348;2023-02-07T08:32:10;2.80;99.90
4687;DHT22;2357;47.316;-1.348;2023-02-07T08:34:36;2.90;99.90
4687;DHT22;2357;47.316;-1.348;2023-02-07T08:37:06;2.90;99.90
4687;DHT22;2357;47.316;-1.348;2023-02-07T08:39:35;2.90;99.90
4687;DHT22;2357;47.316;-1.348;2023-02-07T08:42:02;3.00;99.90
4687;DHT22;2357;47.316;-1.348;2023-02-07T08:44:29;3.10;99.90
4687;DHT22;2357;47.316;-1.348;2023-02-07T08:46:56;3.10;99.90
4687;DHT22;2357;47.316;-1.348;2023-02-07T08:49:22;3.10;99.90
4687;DHT22;2357;47.316;-1.348;2023-02-07T08:51:48;3.10;99.90
4687;DHT22;2357;47.316;-1.348;2023-02-07T08:54:14;3.20;99.90
4687;DHT22;2357;47.316;-1.348;2023-02-07T08:56:40;3.20;99.90
4687;DHT22;2357;47.316;-1.348;2023-02-07T08:59:05;3.20;99.90
4687;DHT22;2357;47.316;-1.348;2023-02-07T09:01:31;3.30;99.90
4687;DHT22;2357;47.316;-1.348;2023-02-07T09:03:57;3.40;99.90
4687;DHT22;2357;47.316;-1.348;2023-02-07T09:06:23;3.40;99.90
4687;DHT22;2357;47.316;-1.348;2023-02-07T09:08:49;3.40;99.90
4687;DHT22;2357;47.316;-1.348;2023-02-07T09:11:15;3.50;99.90
4687;DHT22;2357;47.316;-1.348;2023-02-07T09:13:41;3.50;99.90
4687;DHT22;2357;47.316;-1.348;2023-02-07T09:16:10;3.50;99.90
4687;DHT22;2357;47.316;-1.348;2023-02-07T09:18:36;3.50;99.90
4687;DHT22;2357;47.316;-1.348;2023-02-07T09:21:03;3.50;99.90
4687;DHT22;2357;47.316;-1.348;2023-02-07T09:23:29;3.60;99.90
4687;DHT22;2357;47.316;-1.348;2023-02-07T09:25:59;3.60;99.90
4687;DHT22;2357;47.316;-1.348;2023-02-07T09:28:25;3.70;99.90
4687;DHT22;2357;47.316;-1.348;2023-02-07T09:30:51;3.80;99.90
4687;DHT22;2357;47.316;-1.348;2023-02-07T09:33:17;3.80;99.90
4687;DHT22;2357;47.316;-1.348;2023-02-07T09:35:45;3.80;99.90
4687;DHT22;2357;47.316;-1.348;2023-02-07T09:38:21;3.80;99.90
4687;DHT22;2357;47.316;-1.348;2023-02-07T09:40:49;3.80;99.90
4687;DHT22;2357;47.316;-1.348;2023-02-07T09:46:04;3.90;99.90
4687;DHT22;2357;47.316;-1.348;2023-02-07T09:48:47;3.80;99.90
4687;DHT22;2357;47.316;-1.348;2023-02-07T09:51:18;3.80;99.90
4687;DHT22;2357;47.316;-1.348;2023-02-07T09:53:58;3.90;99.90
4687;DHT22;2357;47.316;-1.348;2023-02-07T09:56:26;3.90;99.90
4687;DHT22;2357;47.316;-1.348;2023-02-07T09:59:21;4.00;99.90
4687;DHT22;2357;47.316;-1.348;2023-02-07T10:01:51;4.10;99.90
4687;DHT22;2357;47.316;-1.348;2023-02-07T10:06:55;4.20;99.90
4687;DHT22;2357;47.316;-1.348;2023-02-07T10:09:29;4.30;99.90
4687;DHT22;2357;47.316;-1.348;2023-02-07T10:29:01;4.60;99.90
4687;DHT22;2357;47.316;-1.348;2023-02-07T10:31:37;4.60;99.90
4687;DHT22;2357;47.316;-1.348;2023-02-07T10:34:11;4.60;99.90
4687;DHT22;2357;47.316;-1.348;2023-02-07T10:36:42;4.50;99.90
4687;DHT22;2357;47.316;-1.348;2023-02-07T10:39:25;4.60;99.90
4687;DHT22;2357;47.316;-1.348;2023-02-07T10:41:53;4.70;99.90
4687;DHT22;2357;47.316;-1.348;2023-02-07T10:44:21;4.70;99.90
4687;DHT22;2357;47.316;-1.348;2023-02-07T10:47:02;4.80;99.90
4687;DHT22;2357;47.316;-1.348;2023-02-07T10:49:30;4.80;99.90
4687;DHT22;2357;47.316;-1.348;2023-02-07T10:52:01;4.70;99.90
4687;DHT22;2357;47.316;-1.348;2023-02-07T10:54:28;4.90;99.90
4687;DHT22;2357;47.316;-1.348;2023-02-07T10:56:59;4.90;99.90
4687;DHT22;2357;47.316;-1.348;2023-02-07T11:04:59;5.00;99.90
4687;DHT22;2357;47.316;-1.348;2023-02-07T11:07:26;5.00;99.90
4687;DHT22;2357;47.316;-1.348;2023-02-07T11:12:49;5.10;99.90
4687;DHT22;2357;47.316;-1.348;2023-02-07T11:15:21;5.30;99.90
4687;DHT22;2357;47.316;-1.348;2023-02-07T11:17:55;5.10;99.90
4687;DHT22;2357;47.316;-1.348;2023-02-07T11:20:25;5.20;99.90
4687;DHT22;2357;47.316;-1.348;2023-02-07T11:22:52;5.20;99.90
4687;DHT22;2357;47.316;-1.348;2023-02-07T11:25:18;5.20;99.90
4687;DHT22;2357;47.316;-1.348;2023-02-07T11:27:52;5.30;99.90
4687;DHT22;2357;47.316;-1.348;2023-02-07T11:30:19;5.40;99.90
4687;DHT22;2357;47.316;-1.348;2023-02-07T11:33:16;5.60;99.90
4687;DHT22;2357;47.316;-1.348;2023-02-07T11:38:53;5.80;99.90
4687;DHT22;2357;47.316;-1.348;2023-02-07T11:41:22;5.70;99.90
4687;DHT22;2357;47.316;-1.348;2023-02-07T11:43:58;5.90;99.90
4687;DHT22;2357;47.316;-1.348;2023-02-07T11:46:37;6.00;99.90
4687;DHT22;2357;47.316;-1.348;2023-02-07T11:49:05;6.20;99.90
4687;DHT22;2357;47.316;-1.348;2023-02-07T11:51:33;6.20;99.90
4687;DHT22;2357;47.316;-1.348;2023-02-07T11:54:02;6.30;99.90
4687;DHT22;2357;47.316;-1.348;2023-02-07T11:56:37;6.50;99.90
4687;DHT22;2357;47.316;-1.348;2023-02-07T11:59:06;6.60;99.90
4687;DHT22;2357;47.316;-1.348;2023-02-07T12:01:35;6.60;99.90
4687;DHT22;2357;47.316;-1.348;2023-02-07T12:04:10;6.60;99.90
4687;DHT22;2357;47.316;-1.348;2023-02-07T12:06:51;6.70;99.90
4687;DHT22;2357;47.316;-1.348;2023-02-07T12:12:12;6.80;99.90
4687;DHT22;2357;47.316;-1.348;2023-02-07T12:14:56;6.80;99.90
4687;DHT22;2357;47.316;-1.348;2023-02-07T12:17:29;6.80;99.90
4687;DHT22;2357;47.316;-1.348;2023-02-07T12:20:02;6.80;99.90
4687;DHT22;2357;47.316;-1.348;2023-02-07T12:22:47;6.90;99.90
4687;DHT22;2357;47.316;-1.348;2023-02-07T12:25:20;7.00;99.90
4687;DHT22;2357;47.316;-1.348;2023-02-07T12:27:49;7.00;99.90
4687;DHT22;2357;47.316;-1.348;2023-02-07T12:35:36;7.00;99.90
4687;DHT22;2357;47.316;-1.348;2023-02-07T12:41:41;7.00;99.90
4687;DHT22;2357;47.316;-1.348;2023-02-07T12:44:34;7.10;99.90
4687;DHT22;2357;47.316;-1.348;2023-02-07T12:47:11;7.10;99.90
4687;DHT22;2357;47.316;-1.348;2023-02-07T12:52:40;7.30;99.90
4687;DHT22;2357;47.316;-1.348;2023-02-07T13:00:55;7.50;99.90
4687;DHT22;2357;47.316;-1.348;2023-02-07T13:04:02;7.40;99.90
4687;DHT22;2357;47.316;-1.348;2023-02-07T13:06:43;7.80;99.90
4687;DHT22;2357;47.316;-1.348;2023-02-07T13:09:36;7.90;99.90
4687;DHT22;2357;47.316;-1.348;2023-02-07T13:12:13;8.20;99.90
4687;DHT22;2357;47.316;-1.348;2023-02-07T13:15:11;8.30;99.90
4687;DHT22;2357;47.316;-1.348;2023-02-07T13:18:10;8.40;99.90
4687;DHT22;2357;47.316;-1.348;2023-02-07T13:21:02;8.50;99.90
4687;DHT22;2357;47.316;-1.348;2023-02-07T13:23:31;8.60;99.90
4687;DHT22;2357;47.316;-1.348;2023-02-07T13:26:24;8.80;99.90
4687;DHT22;2357;47.316;-1.348;2023-02-07T13:28:58;8.80;99.90
4687;DHT22;2357;47.316;-1.348;2023-02-07T13:31:46;9.20;99.90
4687;DHT22;2357;47.316;-1.348;2023-02-07T13:34:20;9.50;99.90
4687;DHT22;2357;47.316;-1.348;2023-02-07T13:36:48;10.20;99.90
4687;DHT22;2357;47.316;-1.348;2023-02-07T13:57:43;10.60;99.90
4687;DHT22;2357;47.316;-1.348;2023-02-07T14:03:21;10.00;99.90
4687;DHT22;2357;47.316;-1.348;2023-02-07T14:05:48;9.80;99.90
4687;DHT22;2357;47.316;-1.348;2023-02-07T14:10:48;10.00;99.90
4687;DHT22;2357;47.316;-1.348;2023-02-07T14:13:33;9.70;99.90
4687;DHT22;2357;47.316;-1.348;2023-02-07T14:16:08;9.80;99.90
4687;DHT22;2357;47.316;-1.348;2023-02-07T14:18:50;9.80;99.90
4687;DHT22;2357;47.316;-1.348;2023-02-07T14:21:23;9.80;99.90
4687;DHT22;2357;47.316;-1.348;2023-02-07T14:26:53;9.90;99.90
4687;DHT22;2357;47.316;-1.348;2023-02-07T14:31:49;10.00;99.90
4687;DHT22;2357;47.316;-1.348;2023-02-07T14:34:18;10.00;99.90
4687;DHT22;2357;47.316;-1.348;2023-02-07T14:36:47;9.90;99.90
4687;DHT22;2357;47.316;-1.348;2023-02-07T14:41:41;10.00;99.90
4687;DHT22;2357;47.316;-1.348;2023-02-07T14:44:26;10.10;99.90
4687;DHT22;2357;47.316;-1.348;2023-02-07T14:46:55;10.00;99.90
4687;DHT22;2357;47.316;-1.348;2023-02-07T14:49:42;10.00;99.90
4687;DHT22;2357;47.316;-1.348;2023-02-07T14:52:14;10.10;99.90
4687;DHT22;2357;47.316;-1.348;2023-02-07T15:07:43;9.70;99.90
4687;DHT22;2357;47.316;-1.348;2023-02-07T15:10:27;9.70;99.90
4687;DHT22;2357;47.316;-1.348;2023-02-07T15:12:53;9.70;99.90
4687;DHT22;2357;47.316;-1.348;2023-02-07T15:15:25;9.50;99.90
4687;DHT22;2357;47.316;-1.348;2023-02-07T15:17:52;10.50;99.90
4687;DHT22;2357;47.316;-1.348;2023-02-07T15:20:26;12.10;99.90
4687;DHT22;2357;47.316;-1.348;2023-02-07T15:22:54;13.40;99.90
4687;DHT22;2357;47.316;-1.348;2023-02-07T15:25:20;13.60;99.90
4687;DHT22;2357;47.316;-1.348;2023-02-07T15:28:16;14.40;99.90
4687;DHT22;2357;47.316;-1.348;2023-02-07T15:30:59;14.00;99.90
4687;DHT22;2357;47.316;-1.348;2023-02-07T15:33:31;13.30;99.90
4687;DHT22;2357;47.316;-1.348;2023-02-07T15:36:05;12.90;99.90
4687;DHT22;2357;47.316;-1.348;2023-02-07T15:38:31;12.30;99.90
4687;DHT22;2357;47.316;-1.348;2023-02-07T15:40:57;12.20;99.90
4687;DHT22;2357;47.316;-1.348;2023-02-07T15:43:33;12.40;99.90
4687;DHT22;2357;47.316;-1.348;2023-02-07T15:46:08;12.20;99.90
4687;DHT22;2357;47.316;-1.348;2023-02-07T15:48:54;11.50;99.90
4687;DHT22;2357;47.316;-1.348;2023-02-07T15:51:24;10.60;99.90
4687;DHT22;2357;47.316;-1.348;2023-02-07T15:53:58;9.90;99.90
4687;DHT22;2357;47.316;-1.348;2023-02-07T15:56:24;9.90;99.90
4687;DHT22;2357;47.316;-1.348;2023-02-07T15:58:58;9.50;99.90
4687;DHT22;2357;47.316;-1.348;2023-02-07T16:01:26;9.00;99.90
4687;DHT22;2357;47.316;-1.348;2023-02-07T16:03:55;8.70;99.90
4687;DHT22;2357;47.316;-1.348;2023-02-07T16:06:26;8.60;99.90
4687;DHT22;2357;47.316;-1.348;2023-02-07T16:09:02;8.40;99.90
4687;DHT22;2357;47.316;-1.348;2023-02-07T16:14:19;8.10;99.90
4687;DHT22;2357;47.316;-1.348;2023-02-07T16:16:53;8.00;99.90
4687;DHT22;2357;47.316;-1.348;2023-02-07T16:19:26;8.00;99.90
4687;DHT22;2357;47.316;-1.348;2023-02-07T16:22:08;7.90;99.90
4687;DHT22;2357;47.316;-1.348;2023-02-07T16:24:39;7.80;99.90
4687;DHT22;2357;47.316;-1.348;2023-02-07T16:27:06;7.70;99.90
4687;DHT22;2357;47.316;-1.348;2023-02-07T16:29:33;7.70;99.90
4687;DHT22;2357;47.316;-1.348;2023-02-07T16:31:59;7.60;99.90
4687;DHT22;2357;47.316;-1.348;2023-02-07T16:34:25;7.70;99.90
4687;DHT22;2357;47.316;-1.348;2023-02-07T16:36:54;7.60;99.90
4687;DHT22;2357;47.316;-1.348;2023-02-07T16:39:21;7.60;99.90
4687;DHT22;2357;47.316;-1.348;2023-02-07T16:41:50;7.60;99.90
4687;DHT22;2357;47.316;-1.348;2023-02-07T16:44:20;7.60;99.90
4687;DHT22;2357;47.316;-1.348;2023-02-07T16:46:47;7.50;99.90
4687;DHT22;2357;47.316;-1.348;2023-02-07T16:49:19;7.50;99.90
4687;DHT22;2357;47.316;-1.348;2023-02-07T16:51:45;7.50;99.90
4687;DHT22;2357;47.316;-1.348;2023-02-07T16:54:11;7.50;99.90
4687;DHT22;2357;47.316;-1.348;2023-02-07T16:56:37;7.50;99.90
4687;DHT22;2357;47.316;-1.348;2023-02-07T16:59:03;7.40;99.90
4687;DHT22;2357;47.316;-1.348;2023-02-07T17:01:29;7.30;99.90
4687;DHT22;2357;47.316;-1.348;2023-02-07T17:03:54;7.40;99.90
4687;DHT22;2357;47.316;-1.348;2023-02-07T17:06:23;7.30;99.90
4687;DHT22;2357;47.316;-1.348;2023-02-07T17:08:50;7.30;99.90
4687;DHT22;2357;47.316;-1.348;2023-02-07T17:11:20;7.20;99.90
4687;DHT22;2357;47.316;-1.348;2023-02-07T17:13:50;7.10;99.90
4687;DHT22;2357;47.316;-1.348;2023-02-07T17:16:15;7.10;99.90
4687;DHT22;2357;47.316;-1.348;2023-02-07T17:18:41;7.10;99.90
4687;DHT22;2357;47.316;-1.348;2023-02-07T17:21:06;7.10;99.90
4687;DHT22;2357;47.316;-1.348;2023-02-07T17:23:34;7.10;99.90
4687;DHT22;2357;47.316;-1.348;2023-02-07T17:26:01;7.10;99.90
4687;DHT22;2357;47.316;-1.348;2023-02-07T17:28:26;7.10;99.90
4687;DHT22;2357;47.316;-1.348;2023-02-07T17:30:53;7.10;99.90
4687;DHT22;2357;47.316;-1.348;2023-02-07T17:33:19;7.10;99.90
4687;DHT22;2357;47.316;-1.348;2023-02-07T17:35:44;7.10;99.90
4687;DHT22;2357;47.316;-1.348;2023-02-07T17:38:10;7.00;99.90
4687;DHT22;2357;47.316;-1.348;2023-02-07T17:40:40;6.90;99.90
4687;DHT22;2357;47.316;-1.348;2023-02-07T17:43:06;7.00;99.90
4687;DHT22;2357;47.316;-1.348;2023-02-07T17:45:34;6.90;99.90
4687;DHT22;2357;47.316;-1.348;2023-02-07T17:48:01;6.90;99.90
4687;DHT22;2357;47.316;-1.348;2023-02-07T17:50:30;6.90;99.90
4687;DHT22;2357;47.316;-1.348;2023-02-07T17:52:57;6.80;99.90
4687;DHT22;2357;47.316;-1.348;2023-02-07T17:55:23;6.80;99.90
4687;DHT22;2357;47.316;-1.348;2023-02-07T17:57:49;6.80;99.90
4687;DHT22;2357;47.316;-1.348;2023-02-07T18:00:17;6.90;99.90
4687;DHT22;2357;47.316;-1.348;2023-02-07T18:02:44;6.90;99.90
4687;DHT22;2357;47.316;-1.348;2023-02-07T18:05:10;6.80;99.90
4687;DHT22;2357;47.316;-1.348;2023-02-07T18:07:36;6.80;99.90
4687;DHT22;2357;47.316;-1.348;2023-02-07T18:10:03;6.80;99.90
4687;DHT22;2357;47.316;-1.348;2023-02-07T18:12:31;6.80;99.90
4687;DHT22;2357;47.316;-1.348;2023-02-07T18:14:56;6.70;99.90
4687;DHT22;2357;47.316;-1.348;2023-02-07T18:17:22;6.70;99.90
4687;DHT22;2357;47.316;-1.348;2023-02-07T18:19:50;6.70;99.90
4687;DHT22;2357;47.316;-1.348;2023-02-07T18:22:15;6.70;99.90
4687;DHT22;2357;47.316;-1.348;2023-02-07T18:24:41;6.70;99.90
4687;DHT22;2357;47.316;-1.348;2023-02-07T18:27:07;6.60;99.90
4687;DHT22;2357;47.316;-1.348;2023-02-07T18:29:32;6.50;99.90
4687;DHT22;2357;47.316;-1.348;2023-02-07T18:31:58;6.50;99.90
4687;DHT22;2357;47.316;-1.348;2023-02-07T18:34:24;6.50;99.90
4687;DHT22;2357;47.316;-1.348;2023-02-07T18:36:50;6.50;99.90
4687;DHT22;2357;47.316;-1.348;2023-02-07T18:39:15;6.50;99.90